In Rescue
 
Open Full Screen Window  High Contrast Mode
January 29, 2020 12:31 AM EST
Weather Information
Wind Direction
  ---
Wind Speed
  00 kt (0 mph)
Wind Gust
  00 kt (0 mph)
Altimeter
30.12 in
Visibility
7 SM
Temperature
00° C
32° F
Dewpoint
-01° C
30° F
Humidity
93%
1hr Rain Fall
00.00 in.
24hr Rain Fall
00.00 in.
Sky Condition
Overcast @ 2,500 ft
MVFR

METAR KI19 290531Z AUTO 00000KT 7SM OVC025 00/M01 A3012 RMK AO2 T10011013

FAA Disclaimer: The data displayed is for advisory purposes only and is not to be used for flight planning or operations.